Fairbanks, AK (99701)

6:57 PM AKDT on September 28, 2016 (GMT -0800)
200 Slater Dr. | | Change Station

Elev 450 ft 64.84 °N, 147.70 °W | Updated 4 seconds ago

Light Rain
Light Rain Mist
40.1 °F
Feels Like 40 °F
N
0.9
Wind Variable Wind from ESE
Gusts 3.0 mph

Today
High -- | Low -- °F
--% Chance of Precip.
Yesterday
High -- | Low -- °F
Precip. -- in
Pressure 30.26 in
Visibility 6.0 miles
Clouds Few 1200 ft
Mostly Cloudy 3300 ft
Windchill 40 °F
Dew Point 39 °F
Humidity 95%
Rainfall 0.02 in
Snow Depth Not available.
7:53 AM 7:27 PM
Waning Crescent, 3% visible
METAR PAFB 290158Z 07003KT 6SM -RA BR FEW012 BKN033 04/03 A3024 RMK AO2A RAB56 SLP247 P0000 T00380031
Pressure 30.26 in
Visibility 6.0 miles
Clouds Few 1200 ft
Mostly Cloudy 3300 ft
Windchill 40 °F
Dew Point 39 °F
Humidity 95%
Rainfall 0.02 in
Snow Depth Not available.
7:53 AM 7:27 PM
Waning Crescent, 3% visible
METAR PAFB 290158Z 07003KT 6SM -RA BR FEW012 BKN033 04/03 A3024 RMK AO2A RAB56 SLP247 P0000 T00380031

10-Day Weather Forecast

Almanac

Astronomy

Sep. 28, 2016 Rise Set
Actual Time
Civil Twilight
Nautical Twilight
Astronomical Twilight
Moon
Length of Visible Light
Length of Day
Tomorrow will be .
, % of the Moon is Illuminated

Today's Extremes

State Highs State Lows

Community

WunderPhotos

Upload Photos

1,942,402 photos uploaded!

WunderBlog® & News

Nearby

Air Quality

  Air Quality AQ Index Pollutant
Not available.

Snow Depth

Station Depth Elevation

Earthquake Activity

City Distance Mag. Time & Date
Minimum magnitude displayed is 2.5.

Coastal Water Temperatures

Place Temperature

Stations

Nearby Weather Stations

Station Location Temp. Windchill Dew Point Humidity Wind Precip. Elev Updated Type
                   

Watches & Warnings

There are currently no watches in effect.